sensor_id;sensor_type;location;lat;lon;timestamp;temperature;humidity
4908;DHT22;64375;51.540;7.364;2023-07-31T00:00:23;22.00;99.90
4908;DHT22;64375;51.540;7.364;2023-07-31T00:02:52;21.90;99.90
4908;DHT22;64375;51.540;7.364;2023-07-31T00:05:31;21.90;99.90
4908;DHT22;64375;51.540;7.364;2023-07-31T00:08:05;21.80;99.90
4908;DHT22;64375;51.540;7.364;2023-07-31T00:10:32;21.60;99.90
4908;DHT22;64375;51.540;7.364;2023-07-31T00:13:02;21.70;99.90
4908;DHT22;64375;51.540;7.364;2023-07-31T00:15:33;21.70;99.90
4908;DHT22;64375;51.540;7.364;2023-07-31T00:18:07;21.70;99.90
4908;DHT22;64375;51.540;7.364;2023-07-31T00:20:37;21.50;99.90
4908;DHT22;64375;51.540;7.364;2023-07-31T00:23:05;21.50;99.90
4908;DHT22;64375;51.540;7.364;2023-07-31T00:25:33;21.50;99.90
4908;DHT22;64375;51.540;7.364;2023-07-31T00:28:17;21.40;99.90
4908;DHT22;64375;51.540;7.364;2023-07-31T00:30:45;21.50;99.90
4908;DHT22;64375;51.540;7.364;2023-07-31T00:33:16;21.40;99.90
4908;DHT22;64375;51.540;7.364;2023-07-31T00:35:48;21.50;99.90
4908;DHT22;64375;51.540;7.364;2023-07-31T00:38:16;21.50;99.90
4908;DHT22;64375;51.540;7.364;2023-07-31T00:40:47;21.40;99.90
4908;DHT22;64375;51.540;7.364;2023-07-31T00:43:16;21.50;99.90
4908;DHT22;64375;51.540;7.364;2023-07-31T00:45:45;21.60;99.90
4908;DHT22;64375;51.540;7.364;2023-07-31T00:48:13;21.50;99.90
4908;DHT22;64375;51.540;7.364;2023-07-31T00:50:41;21.50;99.90
4908;DHT22;64375;51.540;7.364;2023-07-31T00:53:15;21.40;99.90
4908;DHT22;64375;51.540;7.364;2023-07-31T00:55:45;21.40;99.90
4908;DHT22;64375;51.540;7.364;2023-07-31T00:58:25;21.50;99.90
4908;DHT22;64375;51.540;7.364;2023-07-31T01:00:53;21.50;99.90
4908;DHT22;64375;51.540;7.364;2023-07-31T01:03:26;21.40;99.90
4908;DHT22;64375;51.540;7.364;2023-07-31T01:06:04;21.40;99.90
4908;DHT22;64375;51.540;7.364;2023-07-31T01:08:57;21.40;99.90
4908;DHT22;64375;51.540;7.364;2023-07-31T01:11:28;21.40;99.90
4908;DHT22;64375;51.540;7.364;2023-07-31T01:13:59;21.40;99.90
4908;DHT22;64375;51.540;7.364;2023-07-31T01:16:35;21.20;99.90
4908;DHT22;64375;51.540;7.364;2023-07-31T01:19:23;21.30;99.90
4908;DHT22;64375;51.540;7.364;2023-07-31T01:24:58;21.30;99.90
4908;DHT22;64375;51.540;7.364;2023-07-31T01:27:32;21.40;99.90
4908;DHT22;64375;51.540;7.364;2023-07-31T01:30:11;21.30;99.90
4908;DHT22;64375;51.540;7.364;2023-07-31T01:32:42;21.40;99.90
4908;DHT22;64375;51.540;7.364;2023-07-31T01:35:11;21.30;99.90
4908;DHT22;64375;51.540;7.364;2023-07-31T01:37:46;21.40;99.90
4908;DHT22;64375;51.540;7.364;2023-07-31T01:40:16;21.30;99.90
4908;DHT22;64375;51.540;7.364;2023-07-31T01:42:52;21.30;99.90
4908;DHT22;64375;51.540;7.364;2023-07-31T01:45:20;21.10;99.90
4908;DHT22;64375;51.540;7.364;2023-07-31T01:47:48;21.20;99.90
4908;DHT22;64375;51.540;7.364;2023-07-31T01:50:16;21.20;99.90
4908;DHT22;64375;51.540;7.364;2023-07-31T01:52:59;21.30;99.90
4908;DHT22;64375;51.540;7.364;2023-07-31T01:55:34;21.30;99.90
4908;DHT22;64375;51.540;7.364;2023-07-31T01:58:04;21.30;99.90
4908;DHT22;64375;51.540;7.364;2023-07-31T02:00:38;21.30;99.90
4908;DHT22;64375;51.540;7.364;2023-07-31T02:03:22;21.30;99.90
4908;DHT22;64375;51.540;7.364;2023-07-31T02:05:54;21.20;99.90
4908;DHT22;64375;51.540;7.364;2023-07-31T02:08:23;21.40;99.90
4908;DHT22;64375;51.540;7.364;2023-07-31T02:10:51;21.40;99.90
4908;DHT22;64375;51.540;7.364;2023-07-31T02:13:23;21.30;99.90
4908;DHT22;64375;51.540;7.364;2023-07-31T02:15:51;21.30;99.90
4908;DHT22;64375;51.540;7.364;2023-07-31T02:18:21;21.30;99.90
4908;DHT22;64375;51.540;7.364;2023-07-31T02:20:50;21.40;99.90
4908;DHT22;64375;51.540;7.364;2023-07-31T02:23:21;21.40;99.90
4908;DHT22;64375;51.540;7.364;2023-07-31T02:25:55;21.20;99.90
4908;DHT22;64375;51.540;7.364;2023-07-31T02:28:31;21.20;99.90
4908;DHT22;64375;51.540;7.364;2023-07-31T02:31:02;21.10;99.90
4908;DHT22;64375;51.540;7.364;2023-07-31T02:33:36;21.00;99.90
4908;DHT22;64375;51.540;7.364;2023-07-31T02:36:04;21.00;99.90
4908;DHT22;64375;51.540;7.364;2023-07-31T02:38:38;21.10;99.90
4908;DHT22;64375;51.540;7.364;2023-07-31T02:41:09;21.10;99.90
4908;DHT22;64375;51.540;7.364;2023-07-31T02:43:43;21.10;99.90
4908;DHT22;64375;51.540;7.364;2023-07-31T02:46:11;21.00;99.90
4908;DHT22;64375;51.540;7.364;2023-07-31T02:48:45;21.10;99.90
4908;DHT22;64375;51.540;7.364;2023-07-31T02:51:16;21.10;99.90
4908;DHT22;64375;51.540;7.364;2023-07-31T02:53:54;21.00;99.90
4908;DHT22;64375;51.540;7.364;2023-07-31T02:56:31;21.10;99.90
4908;DHT22;64375;51.540;7.364;2023-07-31T02:59:01;21.10;99.90
4908;DHT22;64375;51.540;7.364;2023-07-31T03:01:32;21.00;99.90
4908;DHT22;64375;51.540;7.364;2023-07-31T03:04:05;21.10;99.90
4908;DHT22;64375;51.540;7.364;2023-07-31T03:06:33;21.00;99.90
4908;DHT22;64375;51.540;7.364;2023-07-31T03:09:07;21.00;99.90
4908;DHT22;64375;51.540;7.364;2023-07-31T03:11:44;21.00;99.90
4908;DHT22;64375;51.540;7.364;2023-07-31T03:14:23;21.00;99.90
4908;DHT22;64375;51.540;7.364;2023-07-31T03:16:53;21.00;99.90
4908;DHT22;64375;51.540;7.364;2023-07-31T03:19:24;21.00;99.90
4908;DHT22;64375;51.540;7.364;2023-07-31T03:22:09;21.10;99.90
4908;DHT22;64375;51.540;7.364;2023-07-31T03:24:42;21.10;99.90
4908;DHT22;64375;51.540;7.364;2023-07-31T03:27:10;21.10;99.90
4908;DHT22;64375;51.540;7.364;2023-07-31T03:29:50;21.00;99.90
4908;DHT22;64375;51.540;7.364;2023-07-31T03:32:18;21.00;99.90
4908;DHT22;64375;51.540;7.364;2023-07-31T03:34:49;21.00;99.90
4908;DHT22;64375;51.540;7.364;2023-07-31T03:37:20;21.00;99.90
4908;DHT22;64375;51.540;7.364;2023-07-31T03:40:07;21.10;99.90
4908;DHT22;64375;51.540;7.364;2023-07-31T03:42:38;21.00;99.90
4908;DHT22;64375;51.540;7.364;2023-07-31T03:45:09;21.00;99.90
4908;DHT22;64375;51.540;7.364;2023-07-31T03:47:40;21.00;99.90
4908;DHT22;64375;51.540;7.364;2023-07-31T03:50:11;21.00;99.90
4908;DHT22;64375;51.540;7.364;2023-07-31T03:52:39;21.00;99.90
4908;DHT22;64375;51.540;7.364;2023-07-31T03:55:10;21.00;99.90
4908;DHT22;64375;51.540;7.364;2023-07-31T03:57:40;21.00;99.90
4908;DHT22;64375;51.540;7.364;2023-07-31T04:00:18;21.00;99.90
4908;DHT22;64375;51.540;7.364;2023-07-31T04:02:50;21.00;99.90
4908;DHT22;64375;51.540;7.364;2023-07-31T04:05:18;20.90;99.90
4908;DHT22;64375;51.540;7.364;2023-07-31T04:07:49;20.80;99.90
4908;DHT22;64375;51.540;7.364;2023-07-31T04:10:24;20.90;99.90
4908;DHT22;64375;51.540;7.364;2023-07-31T04:13:01;21.00;99.90
4908;DHT22;64375;51.540;7.364;2023-07-31T04:15:34;21.00;99.90
4908;DHT22;64375;51.540;7.364;2023-07-31T04:18:02;20.90;99.90
4908;DHT22;64375;51.540;7.364;2023-07-31T04:20:30;20.90;99.90
4908;DHT22;64375;51.540;7.364;2023-07-31T04:23:03;20.90;99.90
4908;DHT22;64375;51.540;7.364;2023-07-31T04:25:31;20.90;99.90
4908;DHT22;64375;51.540;7.364;2023-07-31T04:28:04;20.80;99.90
4908;DHT22;64375;51.540;7.364;2023-07-31T04:30:33;20.80;99.90
4908;DHT22;64375;51.540;7.364;2023-07-31T04:33:06;20.70;99.90
4908;DHT22;64375;51.540;7.364;2023-07-31T04:35:40;20.70;99.90
4908;DHT22;64375;51.540;7.364;2023-07-31T04:38:11;20.60;99.90
4908;DHT22;64375;51.540;7.364;2023-07-31T04:40:42;20.70;99.90
4908;DHT22;64375;51.540;7.364;2023-07-31T04:43:13;20.80;99.90
4908;DHT22;64375;51.540;7.364;2023-07-31T04:45:46;20.80;99.90
4908;DHT22;64375;51.540;7.364;2023-07-31T04:48:22;20.80;99.90
4908;DHT22;64375;51.540;7.364;2023-07-31T04:50:50;20.90;99.90
4908;DHT22;64375;51.540;7.364;2023-07-31T04:53:19;21.00;99.90
4908;DHT22;64375;51.540;7.364;2023-07-31T04:55:47;20.90;99.90
4908;DHT22;64375;51.540;7.364;2023-07-31T04:58:17;21.00;99.90
4908;DHT22;64375;51.540;7.364;2023-07-31T05:00:57;20.90;99.90
4908;DHT22;64375;51.540;7.364;2023-07-31T05:03:27;20.90;99.90
4908;DHT22;64375;51.540;7.364;2023-07-31T05:05:58;20.80;99.90
4908;DHT22;64375;51.540;7.364;2023-07-31T05:08:26;20.80;99.90
4908;DHT22;64375;51.540;7.364;2023-07-31T05:11:00;20.80;99.90
4908;DHT22;64375;51.540;7.364;2023-07-31T05:13:31;20.90;99.90
4908;DHT22;64375;51.540;7.364;2023-07-31T05:16:00;20.90;99.90
4908;DHT22;64375;51.540;7.364;2023-07-31T05:18:29;21.00;99.90
4908;DHT22;64375;51.540;7.364;2023-07-31T05:20:57;21.00;99.90
4908;DHT22;64375;51.540;7.364;2023-07-31T05:23:31;21.00;99.90
4908;DHT22;64375;51.540;7.364;2023-07-31T05:26:06;21.00;99.90
4908;DHT22;64375;51.540;7.364;2023-07-31T05:28:35;21.10;99.90
4908;DHT22;64375;51.540;7.364;2023-07-31T05:31:05;21.10;99.90
4908;DHT22;64375;51.540;7.364;2023-07-31T05:33:33;21.10;99.90
4908;DHT22;64375;51.540;7.364;2023-07-31T05:36:01;21.10;99.90
4908;DHT22;64375;51.540;7.364;2023-07-31T05:38:29;21.10;99.90
4908;DHT22;64375;51.540;7.364;2023-07-31T05:40:59;21.10;99.90
4908;DHT22;64375;51.540;7.364;2023-07-31T05:43:30;21.10;99.90
4908;DHT22;64375;51.540;7.364;2023-07-31T05:46:06;21.10;99.90
4908;DHT22;64375;51.540;7.364;2023-07-31T05:48:39;21.20;99.90
4908;DHT22;64375;51.540;7.364;2023-07-31T05:51:06;21.20;99.90
4908;DHT22;64375;51.540;7.364;2023-07-31T05:53:34;21.20;99.90
4908;DHT22;64375;51.540;7.364;2023-07-31T05:56:07;21.20;99.90
4908;DHT22;64375;51.540;7.364;2023-07-31T05:58:35;21.10;99.90
4908;DHT22;64375;51.540;7.364;2023-07-31T06:01:07;21.20;99.90
4908;DHT22;64375;51.540;7.364;2023-07-31T06:03:41;21.10;99.90
4908;DHT22;64375;51.540;7.364;2023-07-31T06:06:09;21.00;99.90
4908;DHT22;64375;51.540;7.364;2023-07-31T06:08:37;21.00;99.90
4908;DHT22;64375;51.540;7.364;2023-07-31T06:11:06;21.00;99.90
4908;DHT22;64375;51.540;7.364;2023-07-31T06:13:38;21.00;99.90
4908;DHT22;64375;51.540;7.364;2023-07-31T06:16:11;21.00;99.90
4908;DHT22;64375;51.540;7.364;2023-07-31T06:18:39;21.00;99.90
4908;DHT22;64375;51.540;7.364;2023-07-31T06:21:07;21.00;99.90
4908;DHT22;64375;51.540;7.364;2023-07-31T06:23:35;21.00;99.90
4908;DHT22;64375;51.540;7.364;2023-07-31T06:26:05;21.00;99.90
4908;DHT22;64375;51.540;7.364;2023-07-31T06:28:36;21.00;99.90
4908;DHT22;64375;51.540;7.364;2023-07-31T06:31:12;21.00;99.90
4908;DHT22;64375;51.540;7.364;2023-07-31T06:33:50;21.10;99.90
4908;DHT22;64375;51.540;7.364;2023-07-31T06:36:24;21.10;99.90
4908;DHT22;64375;51.540;7.364;2023-07-31T06:38:51;21.00;99.90
4908;DHT22;64375;51.540;7.364;2023-07-31T06:41:19;20.90;99.90
4908;DHT22;64375;51.540;7.364;2023-07-31T06:43:55;20.90;99.90
4908;DHT22;64375;51.540;7.364;2023-07-31T06:46:24;20.90;99.90
4908;DHT22;64375;51.540;7.364;2023-07-31T06:48:52;20.80;99.90
4908;DHT22;64375;51.540;7.364;2023-07-31T06:51:20;20.80;99.90
4908;DHT22;64375;51.540;7.364;2023-07-31T06:53:51;20.70;99.90
4908;DHT22;64375;51.540;7.364;2023-07-31T06:56:22;20.80;99.90
4908;DHT22;64375;51.540;7.364;2023-07-31T06:58:50;20.80;99.90
4908;DHT22;64375;51.540;7.364;2023-07-31T07:01:18;20.80;99.90
4908;DHT22;64375;51.540;7.364;2023-07-31T07:03:53;20.80;99.90
4908;DHT22;64375;51.540;7.364;2023-07-31T07:06:22;20.70;99.90
4908;DHT22;64375;51.540;7.364;2023-07-31T07:08:50;20.50;99.90
4908;DHT22;64375;51.540;7.364;2023-07-31T07:11:18;20.50;99.90
4908;DHT22;64375;51.540;7.364;2023-07-31T07:13:46;20.40;99.90
4908;DHT22;64375;51.540;7.364;2023-07-31T07:16:14;20.40;99.90
4908;DHT22;64375;51.540;7.364;2023-07-31T07:18:47;20.40;99.90
4908;DHT22;64375;51.540;7.364;2023-07-31T07:21:31;20.20;99.90
4908;DHT22;64375;51.540;7.364;2023-07-31T07:23:59;20.20;99.90
4908;DHT22;64375;51.540;7.364;2023-07-31T07:26:27;20.10;99.90
4908;DHT22;64375;51.540;7.364;2023-07-31T07:28:58;20.10;99.90
4908;DHT22;64375;51.540;7.364;2023-07-31T07:31:28;20.20;99.90
4908;DHT22;64375;51.540;7.364;2023-07-31T07:33:56;20.30;99.90
4908;DHT22;64375;51.540;7.364;2023-07-31T07:36:24;20.40;99.90
4908;DHT22;64375;51.540;7.364;2023-07-31T07:38:54;20.50;99.90
4908;DHT22;64375;51.540;7.364;2023-07-31T07:41:24;20.60;99.90
4908;DHT22;64375;51.540;7.364;2023-07-31T07:43:52;20.60;99.90
4908;DHT22;64375;51.540;7.364;2023-07-31T07:46:29;20.70;99.90
4908;DHT22;64375;51.540;7.364;2023-07-31T07:48:57;20.70;99.90
4908;DHT22;64375;51.540;7.364;2023-07-31T07:51:25;20.80;99.90
4908;DHT22;64375;51.540;7.364;2023-07-31T07:53:54;20.80;99.90
4908;DHT22;64375;51.540;7.364;2023-07-31T07:56:26;20.80;99.90
4908;DHT22;64375;51.540;7.364;2023-07-31T07:58:57;20.80;99.90
4908;DHT22;64375;51.540;7.364;2023-07-31T08:01:25;20.80;99.90
4908;DHT22;64375;51.540;7.364;2023-07-31T08:03:53;20.80;99.90
4908;DHT22;64375;51.540;7.364;2023-07-31T08:06:21;20.90;99.90
4908;DHT22;64375;51.540;7.364;2023-07-31T08:08:49;20.80;99.90
4908;DHT22;64375;51.540;7.364;2023-07-31T08:11:27;20.90;99.90
4908;DHT22;64375;51.540;7.364;2023-07-31T08:13:55;20.90;99.90
4908;DHT22;64375;51.540;7.364;2023-07-31T08:16:22;20.90;99.90
4908;DHT22;64375;51.540;7.364;2023-07-31T08:18:50;20.90;99.90
4908;DHT22;64375;51.540;7.364;2023-07-31T08:21:19;20.90;99.90
4908;DHT22;64375;51.540;7.364;2023-07-31T08:23:47;20.90;99.90
4908;DHT22;64375;51.540;7.364;2023-07-31T08:26:15;20.90;99.90
4908;DHT22;64375;51.540;7.364;2023-07-31T08:28:45;20.90;99.90
4908;DHT22;64375;51.540;7.364;2023-07-31T08:31:13;20.80;99.90
4908;DHT22;64375;51.540;7.364;2023-07-31T08:33:41;20.90;99.90
4908;DHT22;64375;51.540;7.364;2023-07-31T08:36:09;20.90;99.90
4908;DHT22;64375;51.540;7.364;2023-07-31T08:38:37;20.90;99.90
4908;DHT22;64375;51.540;7.364;2023-07-31T08:41:05;20.80;99.90
4908;DHT22;64375;51.540;7.364;2023-07-31T08:43:33;20.70;99.90
4908;DHT22;64375;51.540;7.364;2023-07-31T08:46:06;20.60;99.90
4908;DHT22;64375;51.540;7.364;2023-07-31T08:48:35;20.70;99.90
4908;DHT22;64375;51.540;7.364;2023-07-31T08:51:07;20.70;99.90
4908;DHT22;64375;51.540;7.364;2023-07-31T08:53:35;20.80;99.90
4908;DHT22;64375;51.540;7.364;2023-07-31T08:56:04;20.80;99.90
4908;DHT22;64375;51.540;7.364;2023-07-31T08:58:37;20.80;99.90
4908;DHT22;64375;51.540;7.364;2023-07-31T09:01:07;20.80;99.90
4908;DHT22;64375;51.540;7.364;2023-07-31T09:03:36;20.80;99.90
4908;DHT22;64375;51.540;7.364;2023-07-31T09:06:05;20.80;99.90
4908;DHT22;64375;51.540;7.364;2023-07-31T09:08:34;20.80;99.90
4908;DHT22;64375;51.540;7.364;2023-07-31T09:11:03;20.80;99.90
4908;DHT22;64375;51.540;7.364;2023-07-31T09:13:33;20.90;99.90
4908;DHT22;64375;51.540;7.364;2023-07-31T09:16:01;20.90;99.90
4908;DHT22;64375;51.540;7.364;2023-07-31T09:18:30;20.90;99.90
4908;DHT22;64375;51.540;7.364;2023-07-31T09:21:02;20.90;99.90
4908;DHT22;64375;51.540;7.364;2023-07-31T09:23:43;20.90;99.90
4908;DHT22;64375;51.540;7.364;2023-07-31T09:26:37;21.00;99.90
4908;DHT22;64375;51.540;7.364;2023-07-31T09:29:07;21.00;99.90
4908;DHT22;64375;51.540;7.364;2023-07-31T09:31:45;21.00;99.90
4908;DHT22;64375;51.540;7.364;2023-07-31T09:34:15;21.00;99.90
4908;DHT22;64375;51.540;7.364;2023-07-31T09:36:44;21.00;99.90
4908;DHT22;64375;51.540;7.364;2023-07-31T09:39:24;21.10;99.90
4908;DHT22;64375;51.540;7.364;2023-07-31T09:42:01;21.10;99.90
4908;DHT22;64375;51.540;7.364;2023-07-31T09:44:39;21.10;99.90
4908;DHT22;64375;51.540;7.364;2023-07-31T09:47:21;21.00;99.90
4908;DHT22;64375;51.540;7.364;2023-07-31T09:49:56;21.00;99.90
4908;DHT22;64375;51.540;7.364;2023-07-31T09:52:27;21.00;99.90
4908;DHT22;64375;51.540;7.364;2023-07-31T09:54:55;21.10;99.90
4908;DHT22;64375;51.540;7.364;2023-07-31T09:57:23;21.00;99.90
4908;DHT22;64375;51.540;7.364;2023-07-31T09:59:55;21.00;99.90
4908;DHT22;64375;51.540;7.364;2023-07-31T10:02:25;21.10;99.90
4908;DHT22;64375;51.540;7.364;2023-07-31T10:05:01;21.00;99.90
4908;DHT22;64375;51.540;7.364;2023-07-31T10:07:30;21.00;99.90
4908;DHT22;64375;51.540;7.364;2023-07-31T10:09:59;21.00;99.90
4908;DHT22;64375;51.540;7.364;2023-07-31T10:12:31;21.00;99.90
4908;DHT22;64375;51.540;7.364;2023-07-31T10:15:00;21.00;99.90
4908;DHT22;64375;51.540;7.364;2023-07-31T10:17:35;21.00;99.90
4908;DHT22;64375;51.540;7.364;2023-07-31T10:20:08;21.00;99.90
4908;DHT22;64375;51.540;7.364;2023-07-31T10:22:38;21.00;99.90
4908;DHT22;64375;51.540;7.364;2023-07-31T10:25:08;21.00;99.90
4908;DHT22;64375;51.540;7.364;2023-07-31T10:27:39;21.00;99.90
4908;DHT22;64375;51.540;7.364;2023-07-31T10:30:11;21.00;99.90
4908;DHT22;64375;51.540;7.364;2023-07-31T10:32:41;21.00;99.90
4908;DHT22;64375;51.540;7.364;2023-07-31T10:35:16;21.00;99.90
4908;DHT22;64375;51.540;7.364;2023-07-31T10:37:47;21.00;99.90
4908;DHT22;64375;51.540;7.364;2023-07-31T10:40:18;21.00;99.90
4908;DHT22;64375;51.540;7.364;2023-07-31T10:42:55;21.00;99.90
4908;DHT22;64375;51.540;7.364;2023-07-31T10:45:25;21.00;99.90
4908;DHT22;64375;51.540;7.364;2023-07-31T10:48:00;21.10;99.90
4908;DHT22;64375;51.540;7.364;2023-07-31T10:50:38;21.10;99.90
4908;DHT22;64375;51.540;7.364;2023-07-31T10:53:06;21.10;99.90
4908;DHT22;64375;51.540;7.364;2023-07-31T10:55:49;21.10;99.90
4908;DHT22;64375;51.540;7.364;2023-07-31T10:58:19;21.10;99.90
4908;DHT22;64375;51.540;7.364;2023-07-31T11:00:47;21.10;99.90
4908;DHT22;64375;51.540;7.364;2023-07-31T11:03:25;21.10;99.90
4908;DHT22;64375;51.540;7.364;2023-07-31T11:06:00;21.10;99.90
4908;DHT22;64375;51.540;7.364;2023-07-31T11:08:30;21.10;99.90
4908;DHT22;64375;51.540;7.364;2023-07-31T11:11:07;21.10;99.90
4908;DHT22;64375;51.540;7.364;2023-07-31T11:13:44;21.10;99.90
4908;DHT22;64375;51.540;7.364;2023-07-31T11:16:13;21.10;99.90
4908;DHT22;64375;51.540;7.364;2023-07-31T11:18:44;21.10;99.90
4908;DHT22;64375;51.540;7.364;2023-07-31T11:21:15;21.10;99.90
4908;DHT22;64375;51.540;7.364;2023-07-31T11:23:49;21.10;99.90
4908;DHT22;64375;51.540;7.364;2023-07-31T11:26:18;21.10;99.90
4908;DHT22;64375;51.540;7.364;2023-07-31T11:28:48;21.00;99.90
4908;DHT22;64375;51.540;7.364;2023-07-31T11:31:16;21.10;99.90
4908;DHT22;64375;51.540;7.364;2023-07-31T11:33:48;21.10;99.90
4908;DHT22;64375;51.540;7.364;2023-07-31T11:36:20;21.10;99.90
4908;DHT22;64375;51.540;7.364;2023-07-31T11:38:48;21.10;99.90
4908;DHT22;64375;51.540;7.364;2023-07-31T11:41:16;21.10;99.90
4908;DHT22;64375;51.540;7.364;2023-07-31T11:43:45;21.10;99.90
4908;DHT22;64375;51.540;7.364;2023-07-31T11:46:13;21.10;99.90
4908;DHT22;64375;51.540;7.364;2023-07-31T11:48:48;21.10;99.90
4908;DHT22;64375;51.540;7.364;2023-07-31T11:51:21;21.10;99.90
4908;DHT22;64375;51.540;7.364;2023-07-31T11:53:51;21.00;99.90
4908;DHT22;64375;51.540;7.364;2023-07-31T11:56:21;21.00;99.90
4908;DHT22;64375;51.540;7.364;2023-07-31T11:58:53;21.10;99.90
4908;DHT22;64375;51.540;7.364;2023-07-31T12:01:23;21.10;99.90
4908;DHT22;64375;51.540;7.364;2023-07-31T12:03:52;21.10;99.90
4908;DHT22;64375;51.540;7.364;2023-07-31T12:06:22;21.10;99.90
4908;DHT22;64375;51.540;7.364;2023-07-31T12:09:01;21.20;99.90
4908;DHT22;64375;51.540;7.364;2023-07-31T12:11:29;21.20;99.90
4908;DHT22;64375;51.540;7.364;2023-07-31T12:13:57;21.20;99.90
4908;DHT22;64375;51.540;7.364;2023-07-31T12:16:26;21.20;99.90
4908;DHT22;64375;51.540;7.364;2023-07-31T12:18:57;21.20;99.90
4908;DHT22;64375;51.540;7.364;2023-07-31T12:21:30;21.10;99.90
4908;DHT22;64375;51.540;7.364;2023-07-31T12:24:02;21.10;99.90
4908;DHT22;64375;51.540;7.364;2023-07-31T12:26:34;21.20;99.90
4908;DHT22;64375;51.540;7.364;2023-07-31T12:29:02;21.20;99.90
4908;DHT22;64375;51.540;7.364;2023-07-31T12:31:43;21.20;99.90
4908;DHT22;64375;51.540;7.364;2023-07-31T12:34:15;21.30;99.90
4908;DHT22;64375;51.540;7.364;2023-07-31T12:36:49;21.40;99.90
4908;DHT22;64375;51.540;7.364;2023-07-31T12:39:20;21.50;99.90
4908;DHT22;64375;51.540;7.364;2023-07-31T12:41:48;21.60;99.90
4908;DHT22;64375;51.540;7.364;2023-07-31T12:44:19;21.60;99.90
4908;DHT22;64375;51.540;7.364;2023-07-31T12:46:47;21.50;99.90
4908;DHT22;64375;51.540;7.364;2023-07-31T12:49:18;21.50;99.90
4908;DHT22;64375;51.540;7.364;2023-07-31T12:51:46;21.60;99.90
4908;DHT22;64375;51.540;7.364;2023-07-31T12:54:24;21.70;99.90
4908;DHT22;64375;51.540;7.364;2023-07-31T12:56:54;21.70;99.90
4908;DHT22;64375;51.540;7.364;2023-07-31T12:59:39;21.70;99.90
4908;DHT22;64375;51.540;7.364;2023-07-31T13:02:10;21.80;99.90
4908;DHT22;64375;51.540;7.364;2023-07-31T13:04:41;21.70;99.90
4908;DHT22;64375;51.540;7.364;2023-07-31T13:07:18;21.80;99.90
4908;DHT22;64375;51.540;7.364;2023-07-31T13:09:52;21.80;99.90
4908;DHT22;64375;51.540;7.364;2023-07-31T13:12:32;21.80;99.90
4908;DHT22;64375;51.540;7.364;2023-07-31T13:15:15;21.80;99.90
4908;DHT22;64375;51.540;7.364;2023-07-31T13:17:51;21.80;99.90
4908;DHT22;64375;51.540;7.364;2023-07-31T13:20:22;21.90;99.90
4908;DHT22;64375;51.540;7.364;2023-07-31T13:22:56;21.90;99.90
4908;DHT22;64375;51.540;7.364;2023-07-31T13:25:34;21.80;99.90
4908;DHT22;64375;51.540;7.364;2023-07-31T13:28:05;21.90;99.90
4908;DHT22;64375;51.540;7.364;2023-07-31T13:30:33;21.80;99.90
4908;DHT22;64375;51.540;7.364;2023-07-31T13:33:13;21.90;99.90
4908;DHT22;64375;51.540;7.364;2023-07-31T13:36:06;21.90;99.90
4908;DHT22;64375;51.540;7.364;2023-07-31T13:38:37;21.90;99.90
4908;DHT22;64375;51.540;7.364;2023-07-31T13:41:06;22.00;99.90
4908;DHT22;64375;51.540;7.364;2023-07-31T13:43:34;22.00;99.90
4908;DHT22;64375;51.540;7.364;2023-07-31T13:46:03;22.00;99.90
4908;DHT22;64375;51.540;7.364;2023-07-31T13:48:36;22.00;99.90
4908;DHT22;64375;51.540;7.364;2023-07-31T13:51:04;22.00;99.90
4908;DHT22;64375;51.540;7.364;2023-07-31T13:53:35;22.10;99.90
4908;DHT22;64375;51.540;7.364;2023-07-31T13:56:03;22.00;99.90
4908;DHT22;64375;51.540;7.364;2023-07-31T13:58:33;22.10;99.90
4908;DHT22;64375;51.540;7.364;2023-07-31T14:01:04;22.00;99.90
4908;DHT22;64375;51.540;7.364;2023-07-31T14:03:35;22.10;99.90
4908;DHT22;64375;51.540;7.364;2023-07-31T14:06:03;22.10;99.90
4908;DHT22;64375;51.540;7.364;2023-07-31T14:08:31;22.10;99.90
4908;DHT22;64375;51.540;7.364;2023-07-31T14:10:59;22.10;99.90
4908;DHT22;64375;51.540;7.364;2023-07-31T14:13:27;22.10;99.90
4908;DHT22;64375;51.540;7.364;2023-07-31T14:15:56;22.20;99.90
4908;DHT22;64375;51.540;7.364;2023-07-31T14:18:29;22.20;99.90
4908;DHT22;64375;51.540;7.364;2023-07-31T14:20:57;22.10;99.90
4908;DHT22;64375;51.540;7.364;2023-07-31T14:23:28;22.20;99.90
4908;DHT22;64375;51.540;7.364;2023-07-31T14:25:56;22.20;99.90
4908;DHT22;64375;51.540;7.364;2023-07-31T14:28:24;22.20;99.90
4908;DHT22;64375;51.540;7.364;2023-07-31T14:30:52;22.20;99.90
4908;DHT22;64375;51.540;7.364;2023-07-31T14:33:21;22.20;99.90
4908;DHT22;64375;51.540;7.364;2023-07-31T14:35:56;22.20;99.90
4908;DHT22;64375;51.540;7.364;2023-07-31T14:38:29;22.20;99.90
4908;DHT22;64375;51.540;7.364;2023-07-31T14:41:00;22.20;99.90
4908;DHT22;64375;51.540;7.364;2023-07-31T14:43:31;22.20;99.90
4908;DHT22;64375;51.540;7.364;2023-07-31T14:45:59;22.30;99.90
4908;DHT22;64375;51.540;7.364;2023-07-31T14:48:28;22.30;99.90
4908;DHT22;64375;51.540;7.364;2023-07-31T14:50:56;22.20;99.90
4908;DHT22;64375;51.540;7.364;2023-07-31T14:53:27;22.20;99.90
4908;DHT22;64375;51.540;7.364;2023-07-31T14:55:58;22.20;99.90
4908;DHT22;64375;51.540;7.364;2023-07-31T14:58:29;22.20;99.90
4908;DHT22;64375;51.540;7.364;2023-07-31T15:00:57;22.20;99.90
4908;DHT22;64375;51.540;7.364;2023-07-31T15:03:32;22.20;99.90
4908;DHT22;64375;51.540;7.364;2023-07-31T15:06:03;22.20;99.90
4908;DHT22;64375;51.540;7.364;2023-07-31T15:08:32;22.30;99.90
4908;DHT22;64375;51.540;7.364;2023-07-31T15:11:00;22.30;99.90
4908;DHT22;64375;51.540;7.364;2023-07-31T15:13:28;22.30;99.90
4908;DHT22;64375;51.540;7.364;2023-07-31T15:15:56;22.30;99.90
4908;DHT22;64375;51.540;7.364;2023-07-31T15:18:25;22.20;99.90
4908;DHT22;64375;51.540;7.364;2023-07-31T15:20:57;22.10;99.90
4908;DHT22;64375;51.540;7.364;2023-07-31T15:23:25;22.10;99.90
4908;DHT22;64375;51.540;7.364;2023-07-31T15:25:53;22.20;99.90
4908;DHT22;64375;51.540;7.364;2023-07-31T15:28:27;22.20;99.90
4908;DHT22;64375;51.540;7.364;2023-07-31T15:30:59;22.20;99.90
4908;DHT22;64375;51.540;7.364;2023-07-31T15:33:27;22.20;99.90
4908;DHT22;64375;51.540;7.364;2023-07-31T15:35:57;22.30;99.90
4908;DHT22;64375;51.540;7.364;2023-07-31T15:38:34;22.20;99.90
4908;DHT22;64375;51.540;7.364;2023-07-31T15:41:02;22.10;99.90
4908;DHT22;64375;51.540;7.364;2023-07-31T15:43:30;22.20;99.90
4908;DHT22;64375;51.540;7.364;2023-07-31T15:45:59;22.20;99.90
4908;DHT22;64375;51.540;7.364;2023-07-31T15:48:27;22.20;99.90
4908;DHT22;64375;51.540;7.364;2023-07-31T15:50:55;22.20;99.90
4908;DHT22;64375;51.540;7.364;2023-07-31T15:53:22;22.20;99.90
4908;DHT22;64375;51.540;7.364;2023-07-31T15:55:54;22.20;99.90
4908;DHT22;64375;51.540;7.364;2023-07-31T15:58:28;22.30;99.90
4908;DHT22;64375;51.540;7.364;2023-07-31T16:01:02;22.30;99.90
4908;DHT22;64375;51.540;7.364;2023-07-31T16:03:30;22.30;99.90
4908;DHT22;64375;51.540;7.364;2023-07-31T16:05:58;22.30;99.90
4908;DHT22;64375;51.540;7.364;2023-07-31T16:08:29;22.40;99.90
4908;DHT22;64375;51.540;7.364;2023-07-31T16:10:59;22.40;99.90
4908;DHT22;64375;51.540;7.364;2023-07-31T16:13:34;22.40;99.90